createdAt,value
2023-03-18T00:02:20.269Z,17.50
2023-03-18T00:05:23.890Z,12.00
2023-03-18T00:08:27.433Z,17.00
2023-03-18T00:11:32.442Z,15.00
2023-03-18T00:14:36.565Z,9.50
2023-03-18T00:17:41.343Z,12.25
2023-03-18T00:20:45.560Z,9.25
2023-03-18T00:23:50.770Z,13.00
2023-03-18T00:26:56.215Z,15.00
2023-03-18T00:29:59.705Z,16.50
2023-03-18T00:33:03.228Z,21.25
2023-03-18T00:36:10.365Z,12.25
2023-03-18T00:39:14.009Z,16.00
2023-03-18T00:42:18.916Z,10.50
2023-03-18T00:45:23.064Z,11.75
2023-03-18T00:48:27.856Z,13.25
2023-03-18T00:51:33.348Z,10.50
2023-03-18T00:54:40.016Z,15.50
2023-03-18T00:57:45.253Z,13.00
2023-03-18T01:00:51.359Z,15.50
2023-03-18T01:03:56.269Z,18.25
2023-03-18T01:07:02.374Z,12.00
2023-03-18T01:10:07.917Z,16.00
2023-03-18T01:13:12.838Z,17.25
2023-03-18T01:16:17.200Z,6.50
2023-03-18T01:19:21.010Z,15.75
2023-03-18T01:22:25.646Z,23.50
2023-03-18T01:25:29.554Z,10.50
2023-03-18T01:28:34.966Z,15.00
2023-03-18T01:31:39.380Z,10.50
2023-03-18T01:34:49.075Z,12.75
2023-03-18T01:37:53.560Z,20.25
2023-03-18T01:40:58.589Z,19.00
2023-03-18T01:44:04.435Z,21.50
2023-03-18T01:47:10.678Z,12.00
2023-03-18T01:50:20.397Z,18.50
2023-03-18T01:53:24.722Z,20.00
2023-03-18T01:56:28.865Z,21.25
2023-03-18T01:59:38.548Z,24.25
2023-03-18T02:02:43.680Z,15.75
2023-03-18T02:05:50.143Z,15.75
2023-03-18T02:08:54.229Z,18.25
2023-03-18T02:11:58.200Z,14.00
2023-03-18T02:15:07.151Z,19.50
2023-03-18T02:18:14.060Z,0.00
2023-03-18T02:21:29.780Z,11.00
2023-03-18T02:24:43.488Z,19.00
2023-03-18T02:27:56.392Z,11.00
2023-03-18T02:31:03.578Z,17.50
2023-03-18T02:34:09.047Z,14.50
2023-03-18T02:37:14.167Z,16.00
2023-03-18T02:40:23.743Z,18.00
2023-03-18T02:43:31.201Z,9.00
2023-03-18T02:46:54.103Z,17.00
2023-03-18T02:49:57.674Z,16.00
2023-03-18T02:53:02.221Z,17.50
2023-03-18T02:56:08.335Z,17.25
2023-03-18T02:59:13.868Z,12.50
2023-03-18T03:02:17.481Z,18.00
2023-03-18T03:05:21.305Z,15.50
2023-03-18T03:08:25.712Z,19.00
2023-03-18T03:11:29.653Z,18.00
2023-03-18T03:14:47.047Z,20.50
2023-03-18T03:17:51.450Z,15.00
2023-03-18T03:20:55.241Z,16.00
2023-03-18T03:23:59.545Z,18.75
2023-03-18T03:27:03.230Z,16.75
2023-03-18T03:30:14.856Z,12.00
2023-03-18T03:33:18.970Z,12.25
2023-03-18T03:36:22.814Z,13.00
2023-03-18T03:39:26.278Z,12.00
2023-03-18T03:42:29.830Z,8.00
2023-03-18T03:45:35.036Z,6.00
2023-03-18T03:48:39.533Z,9.50
2023-03-18T03:51:47.484Z,8.75
2023-03-18T03:54:51.625Z,12.50
2023-03-18T03:57:55.264Z,13.00
2023-03-18T04:01:00.312Z,16.00
2023-03-18T04:04:04.207Z,9.50
2023-03-18T04:07:10.526Z,6.50
2023-03-18T04:10:16.524Z,7.00
2023-03-18T04:13:20.163Z,16.00
2023-03-18T04:16:25.159Z,12.50
2023-03-18T04:19:29.094Z,14.00
2023-03-18T04:22:33.098Z,9.50
2023-03-18T04:25:39.051Z,11.50
2023-03-18T04:28:42.597Z,12.00
2023-03-18T04:31:50.589Z,14.50
2023-03-18T04:34:55.038Z,13.00
2023-03-18T04:37:58.874Z,15.50
2023-03-18T04:41:03.388Z,12.00
2023-03-18T04:44:07.824Z,12.50
2023-03-18T04:47:20.477Z,11.50
2023-03-18T04:50:27.985Z,18.25
2023-03-18T04:53:31.649Z,15.00
2023-03-18T04:56:36.253Z,9.00
2023-03-18T04:59:39.820Z,12.75
2023-03-18T05:02:49.731Z,11.00
2023-03-18T05:05:54.294Z,9.25
2023-03-18T05:09:06.167Z,9.25
2023-03-18T05:12:14.987Z,15.00
2023-03-18T05:15:19.560Z,15.25
2023-03-18T05:18:30.533Z,12.25
2023-03-18T05:21:39.036Z,13.50
2023-03-18T05:24:46.117Z,13.50
2023-03-18T05:27:51.003Z,13.00
2023-03-18T05:31:03.934Z,14.00
2023-03-18T05:34:11.800Z,12.00
2023-03-18T05:37:16.612Z,9.00
2023-03-18T05:40:27.465Z,14.50
2023-03-18T05:43:50.587Z,12.25
2023-03-18T05:46:54.428Z,15.25
2023-03-18T05:50:33.329Z,13.50
2023-03-18T05:53:39.500Z,13.00
2023-03-18T05:56:55.027Z,11.25
2023-03-18T05:59:58.831Z,9.50
2023-03-18T06:03:03.594Z,12.00
2023-03-18T06:06:08.948Z,13.00
2023-03-18T06:09:14.256Z,12.00
2023-03-18T06:12:23.150Z,9.50
2023-03-18T06:15:29.121Z,11.75
2023-03-18T06:18:36.437Z,9.50
2023-03-18T06:21:41.801Z,11.50
2023-03-18T06:24:48.239Z,3.75
2023-03-18T06:27:53.289Z,8.50
2023-03-18T06:30:59.983Z,12.50
2023-03-18T06:34:05.344Z,12.00
2023-03-18T06:37:13.162Z,12.00
2023-03-18T06:40:17.584Z,11.00
2023-03-18T06:43:23.290Z,10.50
2023-03-18T06:46:26.830Z,12.75
2023-03-18T06:49:31.911Z,9.75
2023-03-18T06:52:45.554Z,2.00
2023-03-18T06:55:52.319Z,10.00
2023-03-18T06:58:59.134Z,10.25
2023-03-18T07:02:03.639Z,9.50
2023-03-18T07:05:08.034Z,10.00
2023-03-18T07:08:15.759Z,9.00
2023-03-18T07:11:19.165Z,5.00
2023-03-18T07:14:23.097Z,9.25
2023-03-18T07:17:27.100Z,9.75
2023-03-18T07:20:30.535Z,9.75
2023-03-18T07:23:35.553Z,9.75
2023-03-18T07:26:39.024Z,9.00
2023-03-18T07:29:45.635Z,1.00
2023-03-18T07:32:49.840Z,6.25
2023-03-18T07:35:53.444Z,7.00
2023-03-18T07:39:00.041Z,1.00
2023-03-18T07:42:03.434Z,3.75
2023-03-18T07:45:09.133Z,7.00
2023-03-18T07:48:12.834Z,4.00
2023-03-18T07:51:16.716Z,6.75
2023-03-18T07:54:21.480Z,7.50
2023-03-18T07:57:25.366Z,6.75
2023-03-18T08:00:29.525Z,8.00
2023-03-18T08:03:32.979Z,7.00
2023-03-18T08:06:36.590Z,7.00
2023-03-18T08:09:41.305Z,12.50
2023-03-18T08:12:52.729Z,6.00
2023-03-18T08:15:57.510Z,3.25
2023-03-18T08:19:00.976Z,8.50
2023-03-18T08:22:04.405Z,9.00
2023-03-18T08:25:11.710Z,3.25
2023-03-18T08:28:15.258Z,5.50
2023-03-18T08:31:18.910Z,9.00
2023-03-18T08:34:23.875Z,3.50
2023-03-18T08:37:27.496Z,6.00
2023-03-18T08:40:34.794Z,5.00
2023-03-18T08:43:39.151Z,1.00
2023-03-18T08:46:42.676Z,8.00
2023-03-18T08:49:46.375Z,9.00
2023-03-18T08:52:49.794Z,9.25
2023-03-18T08:55:54.603Z,6.25
2023-03-18T08:58:58.033Z,2.75
2023-03-18T09:02:01.569Z,4.50
2023-03-18T09:05:05.469Z,21.00
2023-03-18T09:08:08.878Z,16.25
2023-03-18T09:11:13.962Z,5.00
2023-03-18T09:14:17.455Z,33.50
2023-03-18T09:17:22.284Z,25.75
2023-03-18T09:20:28.501Z,11.00
2023-03-18T09:23:32.556Z,4.50
2023-03-18T09:26:38.805Z,12.00
2023-03-18T09:29:43.382Z,4.00
2023-03-18T09:32:47.189Z,3.50
2023-03-18T09:35:50.950Z,5.50
2023-03-18T09:38:54.643Z,4.00
2023-03-18T09:42:18.358Z,4.50
2023-03-18T09:45:36.689Z,5.50
2023-03-18T09:49:04.759Z,6.50
2023-03-18T09:52:20.209Z,8.50
2023-03-18T09:55:30.546Z,12.00
2023-03-18T09:58:48.380Z,6.00
2023-03-18T10:01:55.961Z,9.25
2023-03-18T10:05:03.762Z,9.00
2023-03-18T10:08:17.115Z,5.50
2023-03-18T10:11:29.527Z,13.00
2023-03-18T10:14:47.314Z,3.00
2023-03-18T10:17:59.153Z,8.00
2023-03-18T10:21:16.875Z,12.25
2023-03-18T10:24:34.145Z,6.25
2023-03-18T10:27:49.474Z,9.50
2023-03-18T10:31:03.128Z,7.00
2023-03-18T10:34:11.712Z,8.50
2023-03-18T10:37:25.144Z,7.00
2023-03-18T10:40:33.554Z,8.50
2023-03-18T10:43:37.494Z,3.00
2023-03-18T10:46:44.517Z,6.50
2023-03-18T10:50:00.992Z,3.75
2023-03-18T10:53:15.941Z,3.00
2023-03-18T10:56:20.346Z,9.50
2023-03-18T10:59:27.188Z,3.75
2023-03-18T11:02:37.082Z,3.75
2023-03-18T11:05:43.791Z,5.00
2023-03-18T11:08:50.073Z,7.00
2023-03-18T11:11:58.596Z,3.25
2023-03-18T11:15:02.427Z,3.25
2023-03-18T11:18:17.212Z,3.00
2023-03-18T11:21:23.821Z,8.50
2023-03-18T11:24:40.331Z,0.00
2023-03-18T11:27:47.270Z,5.75
2023-03-18T11:30:53.270Z,4.33
2023-03-18T11:34:00.778Z,8.25
2023-03-18T11:37:08.883Z,6.33
2023-03-18T11:40:22.381Z,3.67
2023-03-18T11:43:26.432Z,8.00
2023-03-18T11:46:33.516Z,3.33
2023-03-18T11:49:38.976Z,2.33
2023-03-18T11:52:52.202Z,5.33
2023-03-18T11:56:00.995Z,4.00
2023-03-18T11:59:19.869Z,4.00
2023-03-18T12:02:35.101Z,7.00
2023-03-18T12:05:53.703Z,4.33
2023-03-18T12:09:05.196Z,4.00
2023-03-18T12:12:22.668Z,2.67
2023-03-18T12:15:40.115Z,5.00
2023-03-18T12:18:58.965Z,7.00
2023-03-18T12:22:22.961Z,6.33
2023-03-18T12:25:41.179Z,5.00
2023-03-18T12:29:11.473Z,5.00
2023-03-18T12:32:27.174Z,4.67
2023-03-18T12:35:53.974Z,1.67
2023-03-18T12:39:31.317Z,1.00
2023-03-18T12:42:50.461Z,5.67
2023-03-18T12:46:01.867Z,5.00
2023-03-18T12:49:13.640Z,7.00
2023-03-18T12:52:26.082Z,1.67
2023-03-18T12:55:36.171Z,5.00
2023-03-18T12:58:47.306Z,4.00
2023-03-18T13:02:01.254Z,5.67
2023-03-18T13:05:15.423Z,7.00
2023-03-18T13:08:49.214Z,1.33
2023-03-18T13:12:07.518Z,5.67
2023-03-18T13:15:23.902Z,5.67
2023-03-18T13:18:37.157Z,4.00
2023-03-18T13:21:44.477Z,4.00
2023-03-18T13:25:09.596Z,5.00
2023-03-18T13:28:43.940Z,4.33
2023-03-18T13:31:56.224Z,6.33
2023-03-18T13:35:37.724Z,4.00
2023-03-18T13:38:58.009Z,4.67
2023-03-18T13:42:21.729Z,4.00
2023-03-18T13:45:29.985Z,4.67
2023-03-18T13:48:36.077Z,4.00
2023-03-18T13:51:52.305Z,4.00
2023-03-18T13:55:03.734Z,5.00
2023-03-18T13:58:21.390Z,4.00
2023-03-18T14:01:33.540Z,5.00
2023-03-18T14:04:47.783Z,26.33
2023-03-18T14:07:52.113Z,5.00
2023-03-18T14:11:28.696Z,2.00
2023-03-18T14:15:09.560Z,5.00
2023-03-18T14:18:27.910Z,2.00
2023-03-18T14:21:33.556Z,14.00
2023-03-18T14:24:38.380Z,1.67
2023-03-18T14:27:47.457Z,5.33
2023-03-18T14:31:13.186Z,2.00
2023-03-18T14:34:29.423Z,10.33
2023-03-18T14:37:34.562Z,5.00
2023-03-18T14:40:43.033Z,4.00
2023-03-18T14:43:56.042Z,1.33
2023-03-18T14:47:05.045Z,4.00
2023-03-18T14:50:18.455Z,2.00
2023-03-18T14:53:27.054Z,2.00
2023-03-18T14:56:32.278Z,5.00
2023-03-18T14:59:36.174Z,4.33
2023-03-18T15:02:40.728Z,5.00
2023-03-18T15:05:46.652Z,4.67
2023-03-18T15:08:54.143Z,0.00
2023-03-18T15:11:57.881Z,1.33
2023-03-18T15:15:01.677Z,5.00
2023-03-18T15:18:18.576Z,4.00
2023-03-18T15:21:27.609Z,4.67
2023-03-18T15:24:31.829Z,4.00
2023-03-18T15:27:37.266Z,4.67
2023-03-18T15:30:40.889Z,4.00
2023-03-18T15:33:44.680Z,1.67
2023-03-18T15:36:54.996Z,6.33
2023-03-18T15:39:59.791Z,4.00
2023-03-18T15:43:18.173Z,3.33
2023-03-18T15:46:27.641Z,2.00
2023-03-18T15:49:31.741Z,4.00
2023-03-18T15:52:41.982Z,2.00
2023-03-18T15:55:50.656Z,5.33
2023-03-18T15:59:06.971Z,2.33
2023-03-18T16:02:15.738Z,2.00
2023-03-18T16:05:24.669Z,3.67
2023-03-18T16:08:30.661Z,3.00
2023-03-18T16:11:37.047Z,4.00
2023-03-18T16:14:44.068Z,3.33
2023-03-18T16:17:48.768Z,3.67
2023-03-18T16:20:53.932Z,4.50
2023-03-18T16:23:58.974Z,3.75
2023-03-18T16:27:06.078Z,5.00
2023-03-18T16:30:19.007Z,6.00
2023-03-18T16:33:23.390Z,0.75
2023-03-18T16:36:35.157Z,2.50
2023-03-18T16:39:40.959Z,2.00
2023-03-18T16:42:45.093Z,3.33
2023-03-18T16:45:48.960Z,3.00
2023-03-18T16:48:53.414Z,4.00
2023-03-18T16:51:57.457Z,3.00
2023-03-18T16:55:04.132Z,4.00
2023-03-18T16:58:07.765Z,4.50
2023-03-18T17:01:16.964Z,3.75
2023-03-18T17:04:25.986Z,3.75
2023-03-18T17:07:29.852Z,3.50
2023-03-18T17:10:36.206Z,6.00
2023-03-18T17:13:39.690Z,5.50
2023-03-18T17:16:43.268Z,4.00
2023-03-18T17:19:46.798Z,6.00
2023-03-18T17:22:50.309Z,6.00
2023-03-18T17:25:57.291Z,6.00
2023-03-18T17:29:01.068Z,6.00
2023-03-18T17:32:04.896Z,3.50
2023-03-18T17:35:15.840Z,0.00
2023-03-18T17:38:19.448Z,5.75
2023-03-18T17:41:24.471Z,3.50
2023-03-18T17:44:30.410Z,3.75
2023-03-18T17:47:34.485Z,6.00
2023-03-18T17:50:38.335Z,4.00
2023-03-18T17:53:44.152Z,4.25
2023-03-18T17:56:49.568Z,6.00
2023-03-18T17:59:54.064Z,5.50
2023-03-18T18:02:58.220Z,4.00
2023-03-18T18:06:01.759Z,6.00
2023-03-18T18:09:05.963Z,6.50
2023-03-18T18:12:17.115Z,5.00
2023-03-18T18:15:23.129Z,1.50
2023-03-18T18:18:29.206Z,6.25
2023-03-18T18:21:32.822Z,9.00
2023-03-18T18:24:36.658Z,7.00
2023-03-18T18:27:41.865Z,6.25
2023-03-18T18:30:46.578Z,4.50
2023-03-18T18:33:51.121Z,6.25
2023-03-18T18:36:54.925Z,4.50
2023-03-18T18:39:58.379Z,11.00
2023-03-18T18:43:03.895Z,0.00
2023-03-18T18:46:14.841Z,7.50
2023-03-18T18:49:22.524Z,9.00
2023-03-18T18:52:26.365Z,7.00
2023-03-18T18:55:30.516Z,7.50
2023-03-18T18:58:36.667Z,7.00
2023-03-18T19:01:40.145Z,8.50
2023-03-18T19:04:43.837Z,6.00
2023-03-18T19:07:47.322Z,7.50
2023-03-18T19:10:51.872Z,8.50
2023-03-18T19:14:21.963Z,7.00
2023-03-18T19:17:25.900Z,10.00
2023-03-18T19:20:31.450Z,6.75
2023-03-18T19:23:37.234Z,7.00
2023-03-18T19:26:40.670Z,6.75
2023-03-18T19:29:47.389Z,5.50
2023-03-18T19:32:51.059Z,8.50
2023-03-18T19:35:54.772Z,12.00
2023-03-18T19:39:00.505Z,9.00
2023-03-18T19:42:04.216Z,11.00
2023-03-18T19:45:14.602Z,18.00
2023-03-18T19:48:21.366Z,10.50
2023-03-18T19:51:25.047Z,9.00
2023-03-18T19:54:31.666Z,4.50
2023-03-18T19:57:36.172Z,12.00
2023-03-18T20:00:41.435Z,8.50
2023-03-18T20:03:45.200Z,10.00
2023-03-18T20:06:48.638Z,6.00
2023-03-18T20:09:52.428Z,7.50
2023-03-18T20:12:55.903Z,7.00
2023-03-18T20:16:00.864Z,6.75
2023-03-18T20:19:05.077Z,11.00
2023-03-18T20:22:17.450Z,8.75
2023-03-18T20:25:27.343Z,11.25
2023-03-18T20:28:31.038Z,9.25
2023-03-18T20:31:36.527Z,6.50
2023-03-18T20:34:41.639Z,6.00
2023-03-18T20:37:46.025Z,10.00
2023-03-18T20:40:49.626Z,5.00
2023-03-18T20:43:53.077Z,10.00
2023-03-18T20:46:58.081Z,10.00
2023-03-18T20:50:01.581Z,8.50
2023-03-18T20:53:08.017Z,7.50
2023-03-18T20:56:11.359Z,8.00
2023-03-18T20:59:14.984Z,7.00
2023-03-18T21:02:30.243Z,6.00
2023-03-18T21:05:34.078Z,6.00
2023-03-18T21:08:38.029Z,8.00
2023-03-18T21:11:41.635Z,8.00
2023-03-18T21:14:45.145Z,6.50
2023-03-18T21:17:54.283Z,7.00
2023-03-18T21:20:58.658Z,6.00
2023-03-18T21:24:02.924Z,3.00
2023-03-18T21:27:06.556Z,8.50
2023-03-18T21:30:11.381Z,9.50
2023-03-18T21:33:23.002Z,7.00
2023-03-18T21:36:27.164Z,3.25
2023-03-18T21:39:31.034Z,7.25
2023-03-18T21:42:36.714Z,8.50
2023-03-18T21:45:40.193Z,7.00
2023-03-18T21:48:45.276Z,0.50
2023-03-18T21:51:48.740Z,7.50
2023-03-18T21:54:52.149Z,8.00
2023-03-18T21:57:55.770Z,6.00
2023-03-18T22:01:00.863Z,7.00
2023-03-18T22:04:05.962Z,10.00
2023-03-18T22:07:13.592Z,7.50
2023-03-18T22:10:19.285Z,6.75
2023-03-18T22:13:24.122Z,7.50
2023-03-18T22:16:28.173Z,6.75
2023-03-18T22:19:33.111Z,7.50
2023-03-18T22:22:37.970Z,4.00
2023-03-18T22:25:43.036Z,6.00
2023-03-18T22:28:47.170Z,9.00
2023-03-18T22:31:50.771Z,8.50
2023-03-18T22:34:56.396Z,6.50
2023-03-18T22:38:00.316Z,9.00
2023-03-18T22:41:04.955Z,6.00
2023-03-18T22:44:21.284Z,7.50
2023-03-18T22:47:27.169Z,8.25
2023-03-18T22:50:34.433Z,6.75
2023-03-18T22:53:41.309Z,6.25
2023-03-18T22:56:44.890Z,8.00
2023-03-18T22:59:48.650Z,9.00
2023-03-18T23:02:52.314Z,7.00
2023-03-18T23:05:58.777Z,9.50
2023-03-18T23:09:02.196Z,8.50
2023-03-18T23:12:05.877Z,8.50
2023-03-18T23:15:10.840Z,7.00
2023-03-18T23:18:16.583Z,4.50
2023-03-18T23:21:23.116Z,9.75
2023-03-18T23:24:26.588Z,7.00
2023-03-18T23:27:33.883Z,7.00
2023-03-18T23:30:39.824Z,12.00
2023-03-18T23:33:43.483Z,7.00
2023-03-18T23:36:48.840Z,7.50
2023-03-18T23:39:52.379Z,7.50
2023-03-18T23:42:56.352Z,9.00
2023-03-18T23:46:00.002Z,9.75
2023-03-18T23:49:03.602Z,9.00
2023-03-18T23:52:10.929Z,6.00
2023-03-18T23:55:32.659Z,1.50
2023-03-18T23:58:36.513Z,9.00
